Time;durP1;ratioP1;P1;durP2;ratioP2;P2;SDS_P1;SDS_P2;PMS_P1;PMS_P2;Temp;Humidity;BMP_temperature;BMP_pressure;BME280_temperature;BME280_humidity;BME280_pressure;Samples;Min_cycle;Max_cycle;Signal;HPM_P1;HPM_P2
2022/04/06 00:01:37;;;;;;;22.93;12.67;;;10.00;99.90;;;;;;4936234;29;20213;-79
2022/04/06 00:04:05;;;;;;;23.53;12.03;;;10.00;99.90;;;;;;4931696;29;20211;-79
2022/04/06 00:06:32;;;;;;;19.73;12.67;;;10.00;99.90;;;;;;4933926;29;20218;-80
2022/04/06 00:09:02;;;;;;;24.20;14.53;;;10.00;99.90;;;;;;4942091;28;20223;-77
2022/04/06 00:14:02;;;;;;;21.97;13.00;;;10.00;99.90;;;;;;4926823;29;20207;-79
2022/04/06 00:16:30;;;;;;;25.27;12.80;;;10.00;99.90;;;;;;4940663;28;20209;-77
2022/04/06 00:18:59;;;;;;;21.97;13.13;;;10.00;99.90;;;;;;4928962;29;20191;-77
2022/04/06 00:21:27;;;;;;;25.07;11.47;;;10.00;99.90;;;;;;4943337;28;20198;-77
2022/04/06 00:23:56;;;;;;;21.30;13.03;;;10.00;99.90;;;;;;4939645;28;20203;-78
2022/04/06 00:26:25;;;;;;;18.57;10.47;;;10.00;99.90;;;;;;4932317;29;20202;-77
2022/04/06 00:28:52;;;;;;;24.30;11.60;;;9.90;99.90;;;;;;4927518;29;20210;-77
2022/04/06 00:31:20;;;;;;;20.33;11.40;;;10.00;99.90;;;;;;4925115;29;20211;-77
2022/04/06 00:33:47;;;;;;;21.53;11.70;;;9.90;99.90;;;;;;4940187;29;20226;-77
2022/04/06 00:36:16;;;;;;;21.83;11.80;;;9.90;99.90;;;;;;4946078;28;20210;-77
2022/04/06 00:38:43;;;;;;;17.17;10.27;;;9.90;99.90;;;;;;4941613;28;20669;-77
2022/04/06 00:41:11;;;;;;;21.33;12.30;;;9.90;99.90;;;;;;4927188;29;20217;-77
2022/04/06 00:43:38;;;;;;;18.80;11.53;;;9.90;99.90;;;;;;4932976;29;20217;-77
2022/04/06 00:46:05;;;;;;;17.70;10.87;;;9.90;99.90;;;;;;4927518;29;20211;-79
2022/04/06 00:48:33;;;;;;;20.13;10.80;;;9.90;99.90;;;;;;4923326;29;20238;-77
2022/04/06 00:51:00;;;;;;;16.20;10.70;;;9.90;99.90;;;;;;4926090;29;20195;-77
2022/04/06 00:53:30;;;;;;;22.83;10.93;;;9.90;99.90;;;;;;4936133;28;20227;-77
2022/04/06 00:55:58;;;;;;;16.40;10.47;;;9.90;99.90;;;;;;4929276;29;20218;-78
2022/04/06 00:58:25;;;;;;;21.00;11.63;;;9.90;99.90;;;;;;4938679;28;20222;-77
2022/04/06 01:00:57;;;;;;;15.90;10.87;;;9.80;99.90;;;;;;4940003;28;20693;-78
2022/04/06 01:03:24;;;;;;;19.37;10.67;;;9.90;99.90;;;;;;4924123;29;20210;-77
2022/04/06 01:05:52;;;;;;;19.90;11.00;;;9.90;99.90;;;;;;4924549;29;20198;-76
2022/04/06 01:08:20;;;;;;;17.17;11.20;;;9.80;99.90;;;;;;4927331;29;20229;-76
2022/04/06 01:10:48;;;;;;;16.97;10.33;;;9.80;99.90;;;;;;4929554;29;20198;-77
2022/04/06 01:13:21;;;;;;;21.20;10.73;;;9.80;99.90;;;;;;4927301;29;20198;-77
2022/04/06 01:15:48;;;;;;;16.80;10.90;;;9.80;99.90;;;;;;4942988;28;20202;-76
2022/04/06 01:18:16;;;;;;;15.43;10.40;;;9.80;99.90;;;;;;4931500;29;20226;-76
2022/04/06 01:20:43;;;;;;;19.73;10.23;;;9.80;99.90;;;;;;4931658;29;20551;-77
2022/04/06 01:23:12;;;;;;;20.60;11.43;;;9.80;99.90;;;;;;4926029;29;20287;-77
2022/04/06 01:25:40;;;;;;;18.57;10.37;;;9.80;99.90;;;;;;4930425;29;20202;-76
2022/04/06 01:28:08;;;;;;;17.53;9.53;;;9.80;99.90;;;;;;4949306;28;20233;-77
2022/04/06 01:30:35;;;;;;;17.00;9.77;;;9.80;99.90;;;;;;4952566;28;20206;-77
2022/04/06 01:33:06;;;;;;;17.30;10.37;;;9.80;99.90;;;;;;4941290;28;20199;-77
2022/04/06 01:35:38;;;;;;;18.37;10.37;;;9.70;99.90;;;;;;4929459;29;20215;-77
2022/04/06 01:38:05;;;;;;;18.37;10.57;;;9.80;99.90;;;;;;4926874;29;20690;-76
2022/04/06 01:40:34;;;;;;;17.97;9.47;;;9.70;99.90;;;;;;4930182;29;20646;-77
2022/04/06 01:43:05;;;;;;;17.63;10.10;;;9.70;99.90;;;;;;4929825;29;20669;-76
2022/04/06 01:45:32;;;;;;;16.83;9.83;;;9.70;99.90;;;;;;4935166;29;20193;-76
2022/04/06 01:47:59;;;;;;;14.50;9.70;;;9.70;99.90;;;;;;4943375;28;20242;-76
2022/04/06 01:53:11;;;;;;;20.07;10.07;;;9.70;99.90;;;;;;4925377;29;20206;-77
2022/04/06 01:55:40;;;;;;;14.80;9.60;;;9.70;99.90;;;;;;4926200;29;20222;-76
2022/04/06 01:58:09;;;;;;;16.43;8.67;;;9.70;99.90;;;;;;4940929;28;20276;-76
2022/04/06 02:00:37;;;;;;;17.80;8.97;;;9.60;99.90;;;;;;4928128;29;20206;-76
2022/04/06 02:03:05;;;;;;;13.47;8.60;;;9.60;99.90;;;;;;4939898;28;20574;-76
2022/04/06 02:05:34;;;;;;;15.20;8.60;;;9.60;99.90;;;;;;4931075;29;20203;-77
2022/04/06 02:08:01;;;;;;;15.10;8.70;;;9.60;99.90;;;;;;4923554;29;20665;-76
2022/04/06 02:10:32;;;;;;;21.40;10.47;;;9.60;99.90;;;;;;4937279;28;20207;-76
2022/04/06 02:13:01;;;;;;;14.40;8.77;;;9.70;99.90;;;;;;4931901;29;20214;-76
2022/04/06 02:15:28;;;;;;;15.53;9.40;;;9.60;99.90;;;;;;4947132;28;20685;-76
2022/04/06 02:17:56;;;;;;;17.40;9.43;;;9.60;99.90;;;;;;4927356;29;20225;-76
2022/04/06 02:20:23;;;;;;;17.40;9.23;;;9.60;99.90;;;;;;4938538;28;20551;-76
2022/04/06 02:22:50;;;;;;;15.27;8.87;;;9.60;99.90;;;;;;4926154;29;20210;-76
2022/04/06 02:25:18;;;;;;;15.00;9.33;;;9.60;99.90;;;;;;4943285;28;20211;-76
2022/04/06 02:27:47;;;;;;;17.27;9.20;;;9.60;99.90;;;;;;4942018;28;20233;-76
2022/04/06 02:30:17;;;;;;;14.77;8.67;;;9.60;99.90;;;;;;4932965;29;20203;-76
2022/04/06 02:32:45;;;;;;;17.60;9.83;;;9.60;99.90;;;;;;4932170;29;20210;-76
2022/04/06 02:35:13;;;;;;;13.87;8.80;;;9.60;99.90;;;;;;4941192;28;20226;-77
2022/04/06 02:37:43;;;;;;;17.73;9.10;;;9.60;99.90;;;;;;4925900;29;20242;-77
2022/04/06 02:40:12;;;;;;;15.20;8.43;;;9.60;99.90;;;;;;4930560;29;20211;-76
2022/04/06 02:42:46;;;;;;;16.37;8.67;;;9.60;99.90;;;;;;4927706;29;20210;-76
2022/04/06 02:45:14;;;;;;;17.17;9.20;;;9.60;99.90;;;;;;4929422;29;20561;-76
2022/04/06 02:47:43;;;;;;;19.53;8.23;;;9.60;99.90;;;;;;4931243;28;20234;-77
2022/04/06 02:50:10;;;;;;;16.83;8.90;;;9.60;99.90;;;;;;4945877;28;20230;-76
2022/04/06 02:52:38;;;;;;;12.53;7.97;;;9.60;99.90;;;;;;4946860;28;20198;-76
2022/04/06 02:55:08;;;;;;;12.30;7.50;;;9.60;99.90;;;;;;4944043;28;20238;-77
2022/04/06 02:57:35;;;;;;;15.13;8.20;;;9.60;99.90;;;;;;4928278;29;20237;-76
2022/04/06 03:00:03;;;;;;;16.27;7.83;;;9.60;99.90;;;;;;4942899;28;20207;-77
2022/04/06 03:02:31;;;;;;;12.17;7.07;;;9.60;99.90;;;;;;4945749;28;20206;-76
2022/04/06 03:05:00;;;;;;;12.90;7.50;;;9.60;99.90;;;;;;4927037;29;20198;-76
2022/04/06 03:07:27;;;;;;;10.30;6.67;;;9.60;99.90;;;;;;4932146;29;20696;-77
2022/04/06 03:09:54;;;;;;;10.73;7.13;;;9.60;99.90;;;;;;4942928;28;20221;-76
2022/04/06 03:12:25;;;;;;;14.27;7.17;;;9.60;99.90;;;;;;4930495;29;20206;-76
2022/04/06 03:14:52;;;;;;;16.40;7.13;;;9.60;99.90;;;;;;4941100;28;20218;-76
2022/04/06 03:17:27;;;;;;;11.80;6.40;;;9.60;99.90;;;;;;4925651;29;20225;-75
2022/04/06 03:19:54;;;;;;;10.40;6.63;;;9.60;99.90;;;;;;4934179;29;20202;-76
2022/04/06 03:22:23;;;;;;;13.10;6.00;;;9.50;99.90;;;;;;4934909;28;20292;-76
2022/04/06 03:24:51;;;;;;;22.23;7.20;;;9.60;99.90;;;;;;4932688;29;20194;-76
2022/04/06 03:27:18;;;;;;;14.57;6.93;;;9.60;99.90;;;;;;4943362;29;20233;-76
2022/04/06 03:29:46;;;;;;;15.13;6.33;;;9.60;99.90;;;;;;4928919;29;20233;-77
2022/04/06 03:32:14;;;;;;;11.33;6.30;;;9.60;99.90;;;;;;4925256;29;20206;-76
2022/04/06 03:34:41;;;;;;;13.30;6.40;;;9.60;99.90;;;;;;4925786;29;20206;-76
2022/04/06 03:37:12;;;;;;;10.43;5.97;;;9.50;99.90;;;;;;4924715;29;20223;-76
2022/04/06 03:39:40;;;;;;;12.03;5.63;;;9.50;99.90;;;;;;4930683;29;20217;-76
2022/04/06 03:42:08;;;;;;;10.70;5.83;;;9.50;99.90;;;;;;4932897;29;20209;-76
2022/04/06 03:44:35;;;;;;;10.20;5.90;;;9.50;99.90;;;;;;4922650;29;20214;-76
2022/04/06 03:47:03;;;;;;;14.67;6.87;;;9.50;99.90;;;;;;4926921;29;20226;-76
2022/04/06 03:49:31;;;;;;;13.03;6.07;;;9.50;99.90;;;;;;4947035;28;20202;-76
2022/04/06 03:51:59;;;;;;;8.67;6.07;;;9.50;99.90;;;;;;4927152;29;20213;-76
2022/04/06 03:54:26;;;;;;;10.90;6.13;;;9.50;99.90;;;;;;4930246;29;20198;-76
2022/04/06 03:56:55;;;;;;;10.70;5.97;;;9.50;99.90;;;;;;4918244;29;20234;-76
2022/04/06 03:59:22;;;;;;;11.13;6.17;;;9.50;99.90;;;;;;4942906;28;20206;-76
2022/04/06 04:01:50;;;;;;;9.10;6.03;;;9.50;99.90;;;;;;4927641;29;20206;-74
2022/04/06 04:04:17;;;;;;;12.47;6.87;;;9.50;99.90;;;;;;4940740;28;20595;-74
2022/04/06 04:06:45;;;;;;;9.93;6.17;;;9.50;99.90;;;;;;4927905;29;20573;-73
2022/04/06 04:09:12;;;;;;;11.77;6.10;;;9.50;99.90;;;;;;4940956;29;20203;-73
2022/04/06 04:11:40;;;;;;;10.93;7.43;;;9.50;99.90;;;;;;4928312;29;20581;-74
2022/04/06 04:14:08;;;;;;;11.40;7.23;;;9.50;99.90;;;;;;4927181;29;20211;-74
2022/04/06 04:16:36;;;;;;;10.73;6.33;;;9.50;99.90;;;;;;4939454;28;20250;-73
2022/04/06 04:19:03;;;;;;;10.60;6.57;;;9.50;99.90;;;;;;4941347;28;20202;-74
2022/04/06 04:21:33;;;;;;;7.27;5.20;;;9.50;99.90;;;;;;4941232;28;20669;-74
2022/04/06 04:24:01;;;;;;;9.50;5.80;;;9.50;99.90;;;;;;4925890;29;20684;-73
2022/04/06 04:26:29;;;;;;;12.03;6.50;;;9.50;99.90;;;;;;4940374;28;20676;-73
2022/04/06 04:28:57;;;;;;;10.57;7.03;;;9.40;99.90;;;;;;4926595;29;20203;-74
2022/04/06 04:31:26;;;;;;;10.57;5.97;;;9.50;99.90;;;;;;4918904;29;20199;-74
2022/04/06 04:33:53;;;;;;;10.47;5.73;;;9.40;99.90;;;;;;4929959;29;20918;-74
2022/04/06 04:36:21;;;;;;;11.27;6.27;;;9.40;99.90;;;;;;4925915;29;20214;-74
2022/04/06 04:38:52;;;;;;;11.57;5.83;;;9.40;99.90;;;;;;4946413;28;20561;-74
2022/04/06 04:41:19;;;;;;;11.30;5.67;;;9.40;99.90;;;;;;4930015;29;20214;-74
2022/04/06 04:43:47;;;;;;;12.17;6.33;;;9.40;99.90;;;;;;4922515;29;20199;-73
2022/04/06 04:46:16;;;;;;;8.43;4.97;;;9.40;99.90;;;;;;4929317;29;20198;-74
2022/04/06 04:48:45;;;;;;;10.50;5.57;;;9.40;99.90;;;;;;4922405;29;20198;-74
2022/04/06 04:51:13;;;;;;;9.60;6.00;;;9.40;99.90;;;;;;4941553;28;20203;-74
2022/04/06 04:53:41;;;;;;;10.80;6.17;;;9.30;99.90;;;;;;4930891;29;20194;-74
2022/04/06 04:56:09;;;;;;;11.00;5.60;;;9.40;99.90;;;;;;4944329;28;20218;-75
2022/04/06 04:58:36;;;;;;;11.17;5.50;;;9.30;99.90;;;;;;4929842;28;20230;-76
2022/04/06 05:01:04;;;;;;;9.07;4.97;;;9.30;99.90;;;;;;4920481;29;20207;-73
2022/04/06 05:03:31;;;;;;;8.67;4.93;;;9.30;99.90;;;;;;4928472;29;20210;-73
2022/04/06 05:06:00;;;;;;;9.53;5.90;;;9.30;99.90;;;;;;4925293;28;20205;-73
2022/04/06 05:08:30;;;;;;;10.77;5.80;;;9.30;99.90;;;;;;4929193;29;20221;-76
2022/04/06 05:10:57;;;;;;;13.23;5.73;;;9.30;99.90;;;;;;4926349;28;20688;-76
2022/04/06 05:13:25;;;;;;;9.23;5.53;;;9.30;99.90;;;;;;4941219;28;20205;-74
2022/04/06 05:15:52;;;;;;;8.73;4.70;;;9.30;99.90;;;;;;4928923;29;20225;-73
2022/04/06 05:18:19;;;;;;;8.17;5.20;;;9.30;99.90;;;;;;4931935;29;20229;-73
2022/04/06 05:20:47;;;;;;;8.87;4.73;;;9.20;99.90;;;;;;4948826;28;20202;-74
2022/04/06 05:23:16;;;;;;;11.27;5.20;;;9.30;99.90;;;;;;4927189;29;20210;-73
2022/04/06 05:25:43;;;;;;;8.57;5.13;;;9.30;99.90;;;;;;4930307;29;20195;-74
2022/04/06 05:28:10;;;;;;;13.67;4.97;;;9.30;99.90;;;;;;4947039;28;20259;-73
2022/04/06 05:30:41;;;;;;;12.03;6.00;;;9.30;99.90;;;;;;4942972;29;20554;-73
2022/04/06 05:33:08;;;;;;;7.83;4.90;;;9.30;99.90;;;;;;4943983;28;20210;-73
2022/04/06 05:35:36;;;;;;;9.37;4.30;;;9.30;99.90;;;;;;4929193;29;20207;-75
2022/04/06 05:38:03;;;;;;;7.00;4.50;;;9.30;99.90;;;;;;4946286;28;20226;-73
2022/04/06 05:40:32;;;;;;;8.57;4.87;;;9.30;99.90;;;;;;4949042;28;20210;-73
2022/04/06 05:42:59;;;;;;;6.93;4.10;;;9.30;99.90;;;;;;4930821;29;20203;-73
2022/04/06 05:45:27;;;;;;;10.20;4.67;;;9.40;99.90;;;;;;4947678;28;20561;-73
2022/04/06 05:47:54;;;;;;;8.17;4.23;;;9.40;99.90;;;;;;4929317;29;20230;-73
2022/04/06 05:50:21;;;;;;;10.37;3.93;;;9.40;99.90;;;;;;4930745;29;20622;-72
2022/04/06 05:52:51;;;;;;;10.03;5.10;;;9.40;99.90;;;;;;4932212;29;20220;-73
2022/04/06 05:55:19;;;;;;;9.57;4.27;;;9.40;99.90;;;;;;4940046;29;20199;-74
2022/04/06 05:57:47;;;;;;;7.97;3.70;;;9.40;99.90;;;;;;4928942;29;20245;-75
2022/04/06 06:00:16;;;;;;;6.07;4.00;;;9.50;99.90;;;;;;4930675;29;20223;-73
2022/04/06 06:02:44;;;;;;;9.17;4.53;;;9.50;99.90;;;;;;4940224;28;20213;-73
2022/04/06 06:05:12;;;;;;;8.90;4.53;;;9.50;99.90;;;;;;4928498;29;20194;-73
2022/04/06 06:07:40;;;;;;;7.57;4.17;;;9.50;99.90;;;;;;4929719;29;20225;-73
2022/04/06 06:10:08;;;;;;;9.53;4.33;;;9.50;99.90;;;;;;4928134;29;20210;-73
2022/04/06 06:12:36;;;;;;;9.10;4.37;;;9.50;99.90;;;;;;4930393;29;20206;-73
2022/04/06 06:15:07;;;;;;;6.07;3.80;;;9.50;99.90;;;;;;4930384;29;20209;-73
2022/04/06 06:17:37;;;;;;;7.10;4.40;;;9.50;99.90;;;;;;4936699;28;20671;-73
2022/04/06 06:20:06;;;;;;;10.93;4.60;;;9.50;99.90;;;;;;4958834;28;20217;-73
2022/04/06 06:22:34;;;;;;;8.50;4.50;;;9.50;99.90;;;;;;4950451;28;20216;-73
2022/04/06 06:25:01;;;;;;;10.10;4.70;;;9.50;99.90;;;;;;4946761;28;20203;-73
2022/04/06 06:27:37;;;;;;;9.80;5.00;;;9.50;99.90;;;;;;4947444;29;20229;-73
2022/04/06 06:30:08;;;;;;;8.77;5.23;;;9.50;99.90;;;;;;4951339;29;20204;-73
2022/04/06 06:32:37;;;;;;;13.17;5.27;;;9.50;99.90;;;;;;4946426;28;20218;-73
2022/04/06 06:35:09;;;;;;;8.00;4.53;;;9.50;99.90;;;;;;4942618;29;20210;-73
2022/04/06 06:37:36;;;;;;;11.07;4.40;;;9.50;99.90;;;;;;4948034;29;20222;-73
2022/04/06 06:40:05;;;;;;;9.83;4.97;;;9.50;99.90;;;;;;4950633;28;20216;-73
2022/04/06 06:42:32;;;;;;;7.13;4.57;;;9.50;99.90;;;;;;4964070;28;20214;-74
2022/04/06 06:44:59;;;;;;;7.33;5.03;;;9.50;99.90;;;;;;4955800;28;20217;-74
2022/04/06 06:47:28;;;;;;;7.20;4.77;;;9.60;99.90;;;;;;4961893;28;20242;-73
2022/04/06 06:49:55;;;;;;;9.53;3.80;;;9.60;99.90;;;;;;4940919;28;20240;-73
2022/04/06 06:52:23;;;;;;;9.77;3.87;;;9.60;99.90;;;;;;4941476;29;20711;-73
2022/04/06 06:55:18;;;;;;;10.87;4.20;;;9.60;99.90;;;;;;4942952;29;20209;-73
2022/04/06 06:57:46;;;;;;;7.33;4.40;;;9.70;99.90;;;;;;4964028;28;20237;-73
2022/04/06 07:00:14;;;;;;;8.50;4.83;;;9.70;99.90;;;;;;4945553;28;20233;-73
2022/04/06 07:02:43;;;;;;;9.93;5.63;;;9.70;99.90;;;;;;4959959;28;20228;-73
2022/04/06 07:05:11;;;;;;;9.53;4.50;;;9.60;99.90;;;;;;4960444;28;20307;-73
2022/04/06 07:07:49;;;;;;;8.90;4.80;;;9.60;99.90;;;;;;4944099;29;20213;-73
2022/04/06 07:10:17;;;;;;;8.80;4.63;;;9.70;99.90;;;;;;4950963;29;20266;-73
2022/04/06 07:12:46;;;;;;;8.23;4.20;;;9.60;99.90;;;;;;4952302;28;20197;-73
2022/04/06 07:15:14;;;;;;;6.33;4.63;;;9.70;99.90;;;;;;4937705;28;20210;-73
2022/04/06 07:17:42;;;;;;;7.67;4.37;;;9.60;99.90;;;;;;4951008;28;20255;-74
2022/04/06 07:20:11;;;;;;;9.53;4.40;;;9.60;99.90;;;;;;4937005;29;20202;-73
2022/04/06 07:22:38;;;;;;;7.43;4.23;;;9.60;99.90;;;;;;4948207;29;20855;-73
2022/04/06 07:25:07;;;;;;;6.33;4.10;;;9.60;99.90;;;;;;4947192;28;20209;-74
2022/04/06 07:27:35;;;;;;;8.60;4.07;;;9.60;99.90;;;;;;4939190;29;20233;-74
2022/04/06 07:30:03;;;;;;;14.20;5.00;;;9.60;99.90;;;;;;4946235;28;20201;-73
2022/04/06 07:32:31;;;;;;;7.17;4.93;;;9.50;99.90;;;;;;4962309;28;20216;-73
2022/04/06 07:35:00;;;;;;;4.90;4.40;;;9.40;99.90;;;;;;4966059;28;20198;-73
2022/04/06 07:37:35;;;;;;;9.90;4.23;;;9.40;99.90;;;;;;4948752;29;20217;-74
2022/04/06 07:40:02;;;;;;;6.70;4.33;;;9.40;99.90;;;;;;4963151;28;20198;-73
2022/04/06 07:42:30;;;;;;;8.97;4.47;;;9.40;99.90;;;;;;4945971;28;20587;-74
2022/04/06 07:45:04;;;;;;;6.43;4.73;;;9.40;99.90;;;;;;4968250;28;20542;-74
2022/04/06 07:47:32;;;;;;;7.40;4.90;;;9.30;99.90;;;;;;4952292;28;20239;-73
2022/04/06 07:50:03;;;;;;;8.73;4.37;;;9.30;99.90;;;;;;4953436;29;20205;-74
2022/04/06 07:52:32;;;;;;;10.13;5.57;;;9.40;99.90;;;;;;4954080;29;20209;-74
2022/04/06 07:55:01;;;;;;;7.53;4.67;;;9.40;99.90;;;;;;4952191;29;20770;-72
2022/04/06 07:57:29;;;;;;;9.80;5.10;;;9.40;99.90;;;;;;4957905;28;20224;-74
2022/04/06 08:00:06;;;;;;;8.60;4.90;;;9.40;99.90;;;;;;4965964;28;20198;-74
2022/04/06 08:02:34;;;;;;;9.93;4.87;;;9.50;99.90;;;;;;4961369;28;20684;-73
2022/04/06 08:05:04;;;;;;;9.70;5.10;;;9.50;99.90;;;;;;4941420;28;20201;-72
2022/04/06 08:07:32;;;;;;;5.50;4.23;;;9.50;99.90;;;;;;4958061;28;20218;-73
2022/04/06 08:09:59;;;;;;;8.10;4.00;;;9.70;99.90;;;;;;4946517;29;20198;-73
2022/04/06 08:12:27;;;;;;;4.73;3.80;;;9.70;99.90;;;;;;4943093;29;20219;-73
2022/04/06 08:14:54;;;;;;;9.37;4.37;;;9.60;99.90;;;;;;4964205;28;20198;-73
2022/04/06 08:17:23;;;;;;;5.63;3.60;;;9.60;99.90;;;;;;4945425;28;20233;-76
2022/04/06 08:19:50;;;;;;;6.20;3.93;;;9.70;99.90;;;;;;4942695;29;20186;-75
2022/04/06 08:22:19;;;;;;;8.37;4.37;;;9.60;99.90;;;;;;4950753;28;20276;-75
2022/04/06 08:24:46;;;;;;;5.27;4.40;;;9.60;99.90;;;;;;4948602;28;20201;-75
2022/04/06 08:27:15;;;;;;;4.47;3.67;;;9.60;99.90;;;;;;4942719;29;20581;-76
2022/04/06 08:29:43;;;;;;;9.23;4.33;;;9.50;99.90;;;;;;4943496;28;20209;-76
2022/04/06 08:32:10;;;;;;;7.03;4.20;;;9.60;99.90;;;;;;4948886;29;20189;-75
2022/04/06 08:34:38;;;;;;;7.63;4.20;;;9.60;99.90;;;;;;4946150;28;20205;-75
2022/04/06 08:37:05;;;;;;;7.73;4.40;;;9.60;99.90;;;;;;4948350;29;20225;-75
2022/04/06 08:39:34;;;;;;;6.83;4.20;;;9.50;99.90;;;;;;4951214;28;20201;-75
2022/04/06 08:42:02;;;;;;;8.30;4.47;;;9.50;99.90;;;;;;4962495;28;20226;-75
2022/04/06 08:44:30;;;;;;;5.07;3.93;;;9.50;99.90;;;;;;4946031;29;20205;-75
2022/04/06 08:47:04;;;;;;;7.77;4.40;;;9.40;99.90;;;;;;4945119;28;20229;-75
2022/04/06 08:49:32;;;;;;;6.57;4.37;;;9.40;99.90;;;;;;4943845;29;20205;-75
2022/04/06 08:52:01;;;;;;;7.67;4.27;;;9.40;99.90;;;;;;4961098;28;20217;-75
2022/04/06 08:54:28;;;;;;;5.93;4.53;;;9.40;99.90;;;;;;4937613;29;20598;-72
2022/04/06 08:56:57;;;;;;;7.73;4.33;;;9.40;99.90;;;;;;4964844;28;20222;-73
2022/04/06 08:59:24;;;;;;;6.40;4.50;;;9.40;99.90;;;;;;4950934;28;20228;-75
2022/04/06 09:01:52;;;;;;;8.20;4.40;;;9.50;99.90;;;;;;4946203;29;20209;-75
2022/04/06 09:04:21;;;;;;;8.03;4.90;;;9.60;99.90;;;;;;4948717;28;20209;-75
2022/04/06 09:06:48;;;;;;;7.20;4.60;;;9.60;99.90;;;;;;4949795;29;20230;-75
2022/04/06 09:09:22;;;;;;;4.93;3.63;;;9.70;99.90;;;;;;4958703;28;20205;-75
2022/04/06 09:11:49;;;;;;;7.90;3.90;;;9.80;99.90;;;;;;4961334;28;20197;-75
2022/04/06 09:14:30;;;;;;;4.93;3.50;;;9.80;99.90;;;;;;4950026;29;20198;-75
2022/04/06 09:17:03;;;;;;;4.40;3.70;;;9.80;99.90;;;;;;4946318;29;20225;-75
2022/04/06 09:19:31;;;;;;;5.17;3.37;;;9.80;99.90;;;;;;4964447;28;20232;-75
2022/04/06 09:21:58;;;;;;;4.83;3.13;;;9.90;99.90;;;;;;4950398;29;20208;-75
2022/04/06 09:24:27;;;;;;;5.67;3.17;;;9.90;99.90;;;;;;4944512;29;20302;-75
2022/04/06 09:26:58;;;;;;;9.07;3.67;;;9.90;99.90;;;;;;4963329;28;20592;-76
2022/04/06 09:29:27;;;;;;;4.40;3.00;;;10.00;99.90;;;;;;4946977;28;20198;-76
2022/04/06 09:31:58;;;;;;;5.90;3.40;;;10.00;99.90;;;;;;4946002;28;20199;-76
2022/04/06 09:34:28;;;;;;;6.50;3.00;;;10.10;99.90;;;;;;4946512;29;20603;-76
2022/04/06 09:36:57;;;;;;;7.07;2.77;;;10.00;99.90;;;;;;4944418;29;20230;-76
2022/04/06 09:39:43;;;;;;;3.60;2.63;;;10.00;99.90;;;;;;4948122;28;20229;-77
2022/04/06 09:42:18;;;;;;;5.37;2.80;;;10.00;99.90;;;;;;4958263;28;20818;-76
2022/04/06 09:47:40;;;;;;;3.30;2.27;;;10.00;99.90;;;;;;4949095;29;20229;-76
2022/04/06 09:50:14;;;;;;;6.23;2.17;;;10.00;99.90;;;;;;4948926;28;20210;-76
2022/04/06 09:52:43;;;;;;;6.60;2.70;;;10.10;99.90;;;;;;4947667;28;20276;-76
2022/04/06 09:55:12;;;;;;;7.97;2.70;;;10.00;99.90;;;;;;4947075;29;20213;-76
2022/04/06 09:57:45;;;;;;;4.37;2.37;;;10.00;99.90;;;;;;4947129;28;20680;-76
2022/04/06 10:00:20;;;;;;;4.37;2.27;;;10.10;99.90;;;;;;4945696;29;20202;-76
2022/04/06 10:02:49;;;;;;;4.47;2.37;;;10.10;99.90;;;;;;4948715;28;20248;-77
2022/04/06 10:05:19;;;;;;;7.37;2.40;;;10.10;99.90;;;;;;4948238;29;20217;-76
2022/04/06 10:07:48;;;;;;;3.87;2.40;;;10.00;99.90;;;;;;4949725;28;20222;-76
2022/04/06 10:10:16;;;;;;;5.70;2.63;;;10.00;99.90;;;;;;4951328;29;20209;-75
2022/04/06 10:12:43;;;;;;;4.47;2.27;;;10.00;99.90;;;;;;4952884;29;20267;-75
2022/04/06 10:15:11;;;;;;;4.87;2.30;;;10.00;99.90;;;;;;4953476;29;20201;-75
2022/04/06 10:17:40;;;;;;;4.07;2.10;;;10.00;99.90;;;;;;4950724;29;20221;-75
2022/04/06 10:20:13;;;;;;;4.53;2.37;;;10.10;99.90;;;;;;4942026;28;20592;-74
2022/04/06 10:23:10;;;;;;;3.30;2.07;;;10.10;99.90;;;;;;4963689;28;20202;-75
2022/04/06 10:25:49;;;;;;;4.93;2.50;;;10.10;99.90;;;;;;4956057;28;20212;-75
2022/04/06 10:28:20;;;;;;;2.87;2.13;;;10.00;99.90;;;;;;4951619;29;20702;-74
2022/04/06 10:31:37;;;;;;;6.47;2.90;;;10.10;99.90;;;;;;4945257;29;20205;-76
2022/04/06 10:34:24;;;;;;;5.80;2.37;;;10.10;99.90;;;;;;4950344;28;20209;-75
2022/04/06 10:37:10;;;;;;;5.40;2.07;;;10.20;99.90;;;;;;4944261;28;20588;-76
2022/04/06 10:39:58;;;;;;;3.83;2.07;;;10.20;99.90;;;;;;4945389;29;20230;-76
2022/04/06 10:42:31;;;;;;;5.50;2.23;;;10.30;99.90;;;;;;4941922;28;20214;-76
2022/04/06 10:45:00;;;;;;;6.43;2.40;;;10.30;99.90;;;;;;4951155;29;20190;-76
2022/04/06 10:47:29;;;;;;;6.20;2.30;;;10.30;99.90;;;;;;4947464;29;20241;-75
2022/04/06 10:50:23;;;;;;;4.77;2.47;;;10.30;99.90;;;;;;4964478;28;20215;-75
2022/04/06 10:52:53;;;;;;;5.00;2.30;;;10.40;99.90;;;;;;4947836;29;20706;-77
2022/04/06 10:55:23;;;;;;;2.70;2.20;;;10.40;99.90;;;;;;4946665;28;20216;-74
2022/04/06 10:58:04;;;;;;;7.83;2.40;;;10.40;99.90;;;;;;4939745;29;20230;-74
2022/04/06 11:00:35;;;;;;;5.53;2.17;;;10.40;99.90;;;;;;4943650;29;20197;-74
2022/04/06 11:03:16;;;;;;;6.63;2.27;;;10.40;99.90;;;;;;4945170;28;20213;-74
2022/04/06 11:05:49;;;;;;;5.37;2.43;;;10.30;99.90;;;;;;4959890;28;20207;-74
2022/04/06 11:11:46;;;;;;;4.33;2.10;;;10.30;99.90;;;;;;4949736;28;20201;-74
2022/04/06 11:14:27;;;;;;;5.63;2.63;;;10.40;99.90;;;;;;4948161;29;20213;-74
2022/04/06 11:16:56;;;;;;;5.23;2.53;;;10.40;99.90;;;;;;4949181;28;20233;-73
2022/04/06 11:19:23;;;;;;;4.60;2.70;;;10.20;99.90;;;;;;4944990;29;20220;-74
2022/04/06 11:21:58;;;;;;;4.80;2.80;;;10.30;99.90;;;;;;4950171;28;20209;-75
2022/04/06 11:24:28;;;;;;;2.70;2.37;;;10.30;99.90;;;;;;4947125;29;20207;-76
2022/04/06 11:26:56;;;;;;;4.63;2.80;;;10.30;99.90;;;;;;4959201;28;20218;-76
2022/04/06 11:29:27;;;;;;;3.97;2.60;;;10.30;99.90;;;;;;4945081;28;20712;-76
2022/04/06 11:31:56;;;;;;;6.10;2.40;;;10.30;99.90;;;;;;4963638;28;20199;-76
2022/04/06 11:34:33;;;;;;;4.37;2.70;;;10.20;99.90;;;;;;4945607;28;20202;-75
2022/04/06 11:37:04;;;;;;;4.10;2.47;;;10.10;99.90;;;;;;4959938;28;20217;-76
2022/04/06 11:39:32;;;;;;;4.47;2.20;;;10.10;99.90;;;;;;4948130;28;20229;-75
2022/04/06 11:42:05;;;;;;;6.73;2.87;;;10.20;99.90;;;;;;4948231;29;20452;-76
2022/04/06 11:44:34;;;;;;;5.50;2.30;;;10.20;99.90;;;;;;4964374;28;20252;-76
2022/04/06 11:47:01;;;;;;;3.70;2.80;;;10.20;99.90;;;;;;4946748;29;20221;-76
2022/04/06 11:49:30;;;;;;;4.20;2.60;;;10.20;99.90;;;;;;4949816;28;20290;-76
2022/04/06 11:51:58;;;;;;;3.60;2.53;;;10.30;99.90;;;;;;4943757;29;20200;-76
2022/04/06 11:54:28;;;;;;;5.33;2.80;;;10.10;99.90;;;;;;4944035;29;20206;-76
2022/04/06 11:56:56;;;;;;;4.20;2.90;;;10.20;99.90;;;;;;4958049;28;20234;-76
2022/04/06 11:59:31;;;;;;;6.07;2.87;;;10.20;99.90;;;;;;4950055;28;20243;-77
2022/04/06 12:01:59;;;;;;;4.73;2.80;;;10.20;99.90;;;;;;4953298;28;20681;-76
2022/04/06 12:04:26;;;;;;;4.37;2.30;;;10.10;99.90;;;;;;4945120;29;20771;-76
2022/04/06 12:06:55;;;;;;;4.00;2.90;;;10.00;99.90;;;;;;4953280;28;20221;-76
2022/04/06 12:09:24;;;;;;;4.10;2.53;;;10.00;99.90;;;;;;4942495;29;20580;-76
2022/04/06 12:11:53;;;;;;;4.27;2.97;;;9.90;99.90;;;;;;4950999;28;20217;-76
2022/04/06 12:14:22;;;;;;;4.40;3.10;;;9.90;99.90;;;;;;4948364;29;20204;-77
2022/04/06 12:16:56;;;;;;;4.40;3.40;;;9.80;99.90;;;;;;4946814;29;20225;-77
2022/04/06 12:19:31;;;;;;;6.00;3.20;;;9.80;99.90;;;;;;4942229;28;20214;-76
2022/04/06 12:22:06;;;;;;;4.87;2.87;;;9.70;99.90;;;;;;4964198;28;20205;-76
2022/04/06 12:24:37;;;;;;;4.73;3.13;;;9.80;99.90;;;;;;4942531;29;20205;-77
2022/04/06 12:27:07;;;;;;;8.23;3.03;;;9.80;99.90;;;;;;4947101;28;20249;-77
2022/04/06 12:29:35;;;;;;;4.33;3.90;;;9.90;99.90;;;;;;4964470;28;20213;-76
2022/04/06 12:32:04;;;;;;;4.80;3.20;;;9.90;99.90;;;;;;4962362;28;20202;-77
2022/04/06 12:34:34;;;;;;;6.20;3.30;;;9.90;99.90;;;;;;4946976;29;20194;-77
2022/04/06 12:37:29;;;;;;;6.57;3.83;;;9.90;99.90;;;;;;4948747;29;20559;-77
2022/04/06 12:39:51;;;;;;;5.37;3.33;;;9.80;99.90;;;;;;4949598;28;20217;-76
2022/04/06 12:42:43;;;;;;;6.83;3.90;;;9.90;99.90;;;;;;4950005;28;20221;-77
2022/04/06 12:45:12;;;;;;;6.80;4.10;;;9.90;99.90;;;;;;4948498;28;20290;-76
2022/04/06 12:47:40;;;;;;;5.13;3.37;;;9.90;99.90;;;;;;4947611;28;20228;-77
2022/04/06 12:50:15;;;;;;;5.47;3.20;;;10.00;99.90;;;;;;4946795;29;20198;-77
2022/04/06 12:52:42;;;;;;;6.60;3.57;;;10.00;99.90;;;;;;4949767;28;20201;-77
2022/04/06 12:55:15;;;;;;;5.40;3.30;;;10.10;99.90;;;;;;4965234;28;20205;-77
2022/04/06 12:57:44;;;;;;;4.17;3.17;;;10.10;99.90;;;;;;4945945;29;20224;-76
2022/04/06 13:00:15;;;;;;;7.77;4.07;;;10.20;99.90;;;;;;4943738;28;20210;-77
2022/04/06 13:02:51;;;;;;;4.63;3.33;;;10.20;99.90;;;;;;4947896;29;20197;-77
2022/04/06 13:05:19;;;;;;;4.07;3.07;;;10.20;99.90;;;;;;4949525;29;20205;-77
2022/04/06 13:07:48;;;;;;;4.50;3.20;;;10.20;99.90;;;;;;4961367;28;20233;-75
2022/04/06 13:10:19;;;;;;;3.73;3.33;;;10.30;99.90;;;;;;4951343;28;20201;-77
2022/04/06 13:12:50;;;;;;;6.37;3.73;;;10.30;99.90;;;;;;4946591;29;20648;-76